createdAt,value
2019-03-24T00:00:01.594Z,56.10
2019-03-24T00:02:31.554Z,64.77
2019-03-24T00:04:59.537Z,61.73
2019-03-24T00:07:27.319Z,62.33
2019-03-24T00:09:55.186Z,67.97
2019-03-24T00:12:23.176Z,57.63
2019-03-24T00:14:52.156Z,56.80
2019-03-24T00:17:20.161Z,59.57
2019-03-24T00:19:48.141Z,55.17
2019-03-24T00:22:16.358Z,59.77
2019-03-24T00:24:44.999Z,63.00
2019-03-24T00:27:13.410Z,60.13
2019-03-24T00:29:41.389Z,59.13
2019-03-24T00:32:09.411Z,64.77
2019-03-24T00:34:37.298Z,70.20
2019-03-24T00:37:05.395Z,69.13
2019-03-24T00:39:33.272Z,57.67
2019-03-24T00:42:01.318Z,67.47
2019-03-24T00:44:29.199Z,64.23
2019-03-24T00:46:57.214Z,66.90
2019-03-24T00:49:25.143Z,67.23
2019-03-24T00:51:53.176Z,68.30
2019-03-24T00:54:21.100Z,65.13
2019-03-24T00:56:49.119Z,64.43
2019-03-24T00:59:17.100Z,61.10
2019-03-24T01:01:45.101Z,64.67
2019-03-24T01:04:13.100Z,66.93
2019-03-24T01:06:40.907Z,65.80
2019-03-24T01:09:09.299Z,71.73
2019-03-24T01:11:37.331Z,76.70
2019-03-24T01:14:05.737Z,66.87
2019-03-24T01:16:33.661Z,73.37
2019-03-24T01:19:01.675Z,60.73
2019-03-24T01:21:29.601Z,65.63
2019-03-24T01:23:57.539Z,61.70
2019-03-24T01:26:25.462Z,64.67
2019-03-24T01:28:53.709Z,84.43
2019-03-24T01:31:21.940Z,71.57
2019-03-24T01:33:50.031Z,71.47
2019-03-24T01:36:18.159Z,72.83
2019-03-24T01:38:46.192Z,71.00
2019-03-24T01:41:14.411Z,65.30
2019-03-24T01:43:42.447Z,63.27
2019-03-24T01:46:10.682Z,73.73
2019-03-24T01:48:38.882Z,73.27
2019-03-24T01:51:07.020Z,74.33
2019-03-24T01:53:35.035Z,65.50
2019-03-24T01:56:04.290Z,77.37
2019-03-24T01:58:33.518Z,76.10
2019-03-24T02:01:01.627Z,73.93
2019-03-24T02:03:29.836Z,73.23
2019-03-24T02:05:58.400Z,85.00
2019-03-24T02:08:26.515Z,69.90
2019-03-24T02:10:54.724Z,75.60
2019-03-24T02:13:22.781Z,79.47
2019-03-24T02:15:51.008Z,76.63
2019-03-24T02:18:19.072Z,77.83
2019-03-24T02:20:47.273Z,82.30
2019-03-24T02:23:15.500Z,84.33
2019-03-24T02:25:43.564Z,82.40
2019-03-24T02:28:11.882Z,74.90
2019-03-24T02:30:39.969Z,78.40
2019-03-24T02:33:08.051Z,84.20
2019-03-24T02:35:36.711Z,83.30
2019-03-24T02:38:05.054Z,96.77
2019-03-24T02:40:33.312Z,80.43
2019-03-24T02:43:02.011Z,78.77
2019-03-24T02:45:30.265Z,76.63
2019-03-24T02:47:58.450Z,86.10
2019-03-24T02:50:26.896Z,86.23
2019-03-24T02:52:55.228Z,88.37
2019-03-24T02:55:23.811Z,93.63
2019-03-24T02:57:52.280Z,94.13
2019-03-24T03:00:20.497Z,92.17
2019-03-24T03:02:48.680Z,105.67
2019-03-24T03:05:17.018Z,106.30
2019-03-24T03:07:45.290Z,100.27
2019-03-24T03:10:13.655Z,89.70
2019-03-24T03:12:41.729Z,95.00
2019-03-24T03:15:11.220Z,89.73
2019-03-24T03:17:39.309Z,90.87
2019-03-24T03:20:08.706Z,86.87
2019-03-24T03:22:36.876Z,103.97
2019-03-24T03:25:05.375Z,84.80
2019-03-24T03:27:33.451Z,84.33
2019-03-24T03:30:01.557Z,73.77
2019-03-24T03:32:29.764Z,95.07
2019-03-24T03:34:58.905Z,81.33
2019-03-24T03:37:26.966Z,93.17
2019-03-24T03:39:57.954Z,87.40
2019-03-24T03:42:24.987Z,85.53
2019-03-24T03:44:53.041Z,79.73
2019-03-24T03:47:21.285Z,83.80
2019-03-24T03:49:49.468Z,90.10
2019-03-24T03:52:18.849Z,93.03
2019-03-24T03:54:46.917Z,92.47
2019-03-24T03:57:14.993Z,85.50
2019-03-24T03:59:43.182Z,86.87
2019-03-24T04:02:11.331Z,83.03
2019-03-24T04:04:39.408Z,80.80
2019-03-24T04:07:07.449Z,97.63
2019-03-24T04:09:35.522Z,90.53
2019-03-24T04:12:03.581Z,89.47
2019-03-24T04:14:31.640Z,92.87
2019-03-24T04:17:07.223Z,89.83
2019-03-24T04:19:29.789Z,94.83
2019-03-24T04:21:57.847Z,96.10
2019-03-24T04:24:26.569Z,84.17
2019-03-24T04:26:55.719Z,83.67
2019-03-24T04:29:23.870Z,96.77
2019-03-24T04:31:51.933Z,96.40
2019-03-24T04:34:20.002Z,90.17
2019-03-24T04:36:48.078Z,102.30
2019-03-24T04:39:16.232Z,83.60
2019-03-24T04:41:44.316Z,90.63
2019-03-24T04:44:12.358Z,96.40
2019-03-24T04:46:41.382Z,91.67
2019-03-24T04:49:09.548Z,99.77
2019-03-24T04:51:37.654Z,107.00
2019-03-24T04:54:05.743Z,102.93
2019-03-24T04:56:33.902Z,110.30
2019-03-24T04:59:02.091Z,123.50
2019-03-24T05:01:30.152Z,107.27
2019-03-24T05:03:58.261Z,106.10
2019-03-24T05:06:26.993Z,108.73
2019-03-24T05:08:55.128Z,93.70
2019-03-24T05:11:23.153Z,123.67
2019-03-24T05:13:51.219Z,106.10
2019-03-24T05:16:19.291Z,102.67
2019-03-24T05:18:47.361Z,90.83
2019-03-24T05:21:15.468Z,105.33
2019-03-24T05:23:46.025Z,93.70
2019-03-24T05:26:13.819Z,91.93
2019-03-24T05:28:41.948Z,102.77
2019-03-24T05:31:10.002Z,98.97
2019-03-24T05:33:38.048Z,82.50
2019-03-24T05:36:06.156Z,96.57
2019-03-24T05:38:34.312Z,97.97
2019-03-24T05:41:02.352Z,101.23
2019-03-24T05:43:30.412Z,117.20
2019-03-24T05:45:58.555Z,109.47
2019-03-24T05:48:26.608Z,114.27
2019-03-24T05:50:54.643Z,103.93
2019-03-24T05:53:22.706Z,111.00
2019-03-24T05:55:50.765Z,100.30
2019-03-24T05:58:18.861Z,107.33
2019-03-24T06:00:46.912Z,107.13
2019-03-24T06:03:14.956Z,105.23
2019-03-24T06:05:43.146Z,110.83
2019-03-24T06:08:11.192Z,119.40
2019-03-24T06:10:40.578Z,117.23
2019-03-24T06:13:08.657Z,97.77
2019-03-24T06:15:36.708Z,95.77
2019-03-24T06:18:04.807Z,102.60
2019-03-24T06:20:32.859Z,96.23
2019-03-24T06:23:00.997Z,102.20
2019-03-24T06:25:29.094Z,101.20
2019-03-24T06:27:57.136Z,113.83
2019-03-24T06:30:25.297Z,103.37
2019-03-24T06:32:53.401Z,97.53
2019-03-24T06:35:21.551Z,105.97
2019-03-24T06:37:49.620Z,107.87
2019-03-24T06:40:19.736Z,115.60
2019-03-24T06:42:47.984Z,97.87
2019-03-24T06:45:16.074Z,89.73
2019-03-24T06:47:44.105Z,102.43
2019-03-24T06:50:13.772Z,91.13
2019-03-24T06:52:41.876Z,97.87
2019-03-24T06:55:10.073Z,94.77
2019-03-24T06:57:38.159Z,91.33
2019-03-24T07:00:07.221Z,106.80
2019-03-24T07:02:35.312Z,100.90
2019-03-24T07:05:03.938Z,89.83
2019-03-24T07:07:32.028Z,104.57
2019-03-24T07:10:00.172Z,94.70
2019-03-24T07:12:28.461Z,103.67
2019-03-24T07:14:57.039Z,102.83
2019-03-24T07:17:25.373Z,105.63
2019-03-24T07:19:53.442Z,103.70
2019-03-24T07:22:21.500Z,96.63
2019-03-24T07:24:49.825Z,109.20
2019-03-24T07:27:19.392Z,107.17
2019-03-24T07:29:47.984Z,100.37
2019-03-24T07:32:17.603Z,109.60
2019-03-24T07:34:47.348Z,93.83
2019-03-24T07:37:16.479Z,98.43
2019-03-24T07:39:45.340Z,114.23
2019-03-24T07:42:15.345Z,105.03
2019-03-24T07:44:45.288Z,102.10
2019-03-24T07:47:13.648Z,119.47
2019-03-24T07:49:42.147Z,100.80
2019-03-24T07:52:10.643Z,105.07
2019-03-24T07:54:39.680Z,110.13
2019-03-24T07:57:09.904Z,121.53
2019-03-24T07:59:38.633Z,118.83
2019-03-24T08:02:07.299Z,103.87
2019-03-24T08:04:36.533Z,110.00
2019-03-24T08:07:05.769Z,113.80
2019-03-24T08:09:34.078Z,113.27
2019-03-24T08:12:02.437Z,118.37
2019-03-24T08:14:30.572Z,127.13
2019-03-24T08:16:58.668Z,124.47
2019-03-24T08:19:26.831Z,129.73
2019-03-24T08:21:54.989Z,135.63
2019-03-24T08:24:23.225Z,146.67
2019-03-24T08:26:51.418Z,137.27
2019-03-24T08:29:19.516Z,139.00
2019-03-24T08:31:47.588Z,143.53
2019-03-24T08:34:16.764Z,129.47
2019-03-24T08:36:45.037Z,139.63
2019-03-24T08:39:13.236Z,133.27
2019-03-24T08:41:41.256Z,138.43
2019-03-24T08:44:09.288Z,134.67
2019-03-24T08:46:37.388Z,129.97
2019-03-24T08:49:05.607Z,128.73
2019-03-24T08:51:33.897Z,130.97
2019-03-24T08:54:02.116Z,117.77
2019-03-24T08:56:31.391Z,122.20
2019-03-24T08:58:59.741Z,128.57
2019-03-24T09:01:27.814Z,129.57
2019-03-24T09:03:56.946Z,117.80
2019-03-24T09:06:26.016Z,113.23
2019-03-24T09:08:54.059Z,127.80
2019-03-24T09:11:31.221Z,114.53
2019-03-24T09:13:54.285Z,120.63
2019-03-24T09:17:07.863Z,114.93
2019-03-24T09:19:40.800Z,110.13
2019-03-24T09:22:09.095Z,112.17
2019-03-24T09:24:37.535Z,127.67
2019-03-24T09:27:05.722Z,115.97
2019-03-24T09:29:35.690Z,115.30
2019-03-24T09:32:03.956Z,106.20
2019-03-24T09:34:32.371Z,115.33
2019-03-24T09:37:00.622Z,120.50
2019-03-24T09:39:28.775Z,112.03
2019-03-24T09:41:57.346Z,113.03
2019-03-24T09:44:26.631Z,104.90
2019-03-24T09:46:54.719Z,101.40
2019-03-24T09:49:23.032Z,112.43
2019-03-24T09:51:51.255Z,101.03
2019-03-24T09:54:19.624Z,110.13
2019-03-24T09:56:49.133Z,100.10
2019-03-24T09:59:17.611Z,93.77
2019-03-24T10:01:45.684Z,93.73
2019-03-24T10:04:13.866Z,109.30
2019-03-24T10:06:42.068Z,104.17
2019-03-24T10:09:10.223Z,104.97
2019-03-24T10:11:40.688Z,95.27
2019-03-24T10:14:08.765Z,131.70
2019-03-24T10:16:37.710Z,106.47
2019-03-24T10:19:13.473Z,96.10
2019-03-24T10:21:35.779Z,98.37
2019-03-24T10:24:04.469Z,92.47
2019-03-24T10:26:32.896Z,94.50
2019-03-24T10:29:01.004Z,95.63
2019-03-24T10:31:29.633Z,90.07
2019-03-24T10:33:58.342Z,91.43
2019-03-24T10:36:27.272Z,89.83
2019-03-24T10:38:55.375Z,87.10
2019-03-24T10:41:23.646Z,97.60
2019-03-24T10:43:52.080Z,87.37
2019-03-24T10:46:20.661Z,83.30
2019-03-24T10:48:48.728Z,98.93
2019-03-24T10:51:16.851Z,91.83
2019-03-24T10:53:45.016Z,92.67
2019-03-24T10:56:13.069Z,83.40
2019-03-24T10:58:41.117Z,99.50
2019-03-24T11:01:09.251Z,99.87
2019-03-24T11:03:37.318Z,99.97
2019-03-24T11:06:05.468Z,105.80
2019-03-24T11:08:33.676Z,113.40
2019-03-24T11:11:02.645Z,99.97
2019-03-24T11:13:30.707Z,114.07
2019-03-24T11:15:59.681Z,106.93
2019-03-24T11:18:28.023Z,106.30
2019-03-24T11:20:56.174Z,98.93
2019-03-24T11:23:24.223Z,95.83
2019-03-24T11:25:52.308Z,90.57
2019-03-24T11:28:21.472Z,90.10
2019-03-24T11:30:49.516Z,85.20
2019-03-24T11:33:17.633Z,96.10
2019-03-24T11:35:45.627Z,87.30
2019-03-24T11:38:13.656Z,97.67
2019-03-24T11:40:42.120Z,95.80
2019-03-24T11:43:11.899Z,93.03
2019-03-24T11:45:39.977Z,96.33
2019-03-24T11:48:08.434Z,84.03
2019-03-24T11:50:36.437Z,97.23
2019-03-24T11:53:04.537Z,95.60
2019-03-24T11:55:32.619Z,93.43
2019-03-24T11:58:05.747Z,86.50
2019-03-24T12:00:35.456Z,85.23
2019-03-24T12:03:03.597Z,83.27
2019-03-24T12:05:31.857Z,92.90
2019-03-24T12:08:02.077Z,83.50
2019-03-24T12:10:30.133Z,79.23
2019-03-24T12:12:58.694Z,88.40
2019-03-24T12:15:26.701Z,75.40
2019-03-24T12:17:55.209Z,77.73
2019-03-24T12:20:23.205Z,89.20
2019-03-24T12:22:53.277Z,74.40
2019-03-24T12:25:21.472Z,86.30
2019-03-24T12:27:49.532Z,91.63
2019-03-24T12:30:17.593Z,102.67
2019-03-24T12:32:45.654Z,74.03
2019-03-24T12:35:13.708Z,72.63
2019-03-24T12:37:45.398Z,78.70
2019-03-24T12:40:13.427Z,75.10
2019-03-24T12:42:41.400Z,77.00
2019-03-24T12:45:10.833Z,76.57
2019-03-24T12:47:38.974Z,73.30
2019-03-24T12:50:09.311Z,73.93
2019-03-24T12:52:37.547Z,76.83
2019-03-24T12:55:05.814Z,78.40
2019-03-24T12:57:33.830Z,70.50
2019-03-24T13:00:01.803Z,72.80
2019-03-24T13:02:31.605Z,70.80
2019-03-24T13:04:59.604Z,77.83
2019-03-24T13:07:27.625Z,75.37
2019-03-24T13:09:55.778Z,75.87
2019-03-24T13:12:23.823Z,69.87
2019-03-24T13:14:51.850Z,82.17
2019-03-24T13:17:19.682Z,84.33
2019-03-24T13:19:47.574Z,74.03
2019-03-24T13:22:15.616Z,78.17
2019-03-24T13:24:45.487Z,85.10
2019-03-24T13:27:13.485Z,78.07
2019-03-24T13:29:41.264Z,74.70
2019-03-24T13:32:09.157Z,69.77
2019-03-24T13:34:39.214Z,79.30
2019-03-24T13:37:07.099Z,74.67
2019-03-24T13:39:35.451Z,73.00
2019-03-24T13:42:03.868Z,77.93
2019-03-24T13:44:33.054Z,76.37
2019-03-24T13:47:01.010Z,75.27
2019-03-24T13:49:28.881Z,79.40
2019-03-24T13:51:56.798Z,76.77
2019-03-24T13:54:26.282Z,77.50
2019-03-24T13:56:54.212Z,80.87
2019-03-24T13:59:22.309Z,71.13
2019-03-24T14:01:50.194Z,78.23
2019-03-24T14:04:18.598Z,73.77
2019-03-24T14:06:46.491Z,83.13
2019-03-24T14:09:14.495Z,76.30
2019-03-24T14:11:42.524Z,70.60
2019-03-24T14:14:11.027Z,80.60
2019-03-24T14:16:39.093Z,77.93
2019-03-24T14:19:08.277Z,75.93
2019-03-24T14:21:37.604Z,69.70
2019-03-24T14:24:05.882Z,71.30
2019-03-24T14:26:34.110Z,69.57
2019-03-24T14:29:02.309Z,68.40
2019-03-24T14:31:30.352Z,71.60
2019-03-24T14:33:58.280Z,68.57
2019-03-24T14:36:26.480Z,75.00
2019-03-24T14:38:54.691Z,69.77
2019-03-24T14:41:22.817Z,71.13
2019-03-24T14:43:51.049Z,79.00
2019-03-24T14:46:20.457Z,71.37
2019-03-24T14:48:48.587Z,72.93
2019-03-24T14:51:16.524Z,66.87
2019-03-24T14:53:45.314Z,72.10
2019-03-24T14:56:13.618Z,70.70
2019-03-24T14:58:43.636Z,73.40
2019-03-24T15:01:12.804Z,74.63
2019-03-24T15:03:40.922Z,68.67
2019-03-24T15:06:10.486Z,73.20
2019-03-24T15:08:38.538Z,78.47
2019-03-24T15:11:06.888Z,77.23
2019-03-24T15:13:35.717Z,76.33
2019-03-24T15:16:03.804Z,78.00
2019-03-24T15:18:32.479Z,78.60
2019-03-24T15:21:05.682Z,78.00
2019-03-24T15:23:30.449Z,78.57
2019-03-24T15:26:00.299Z,71.50
2019-03-24T15:28:28.613Z,81.83
2019-03-24T15:30:56.559Z,75.27
2019-03-24T15:33:24.572Z,74.30
2019-03-24T15:35:53.114Z,70.53
2019-03-24T15:38:21.201Z,70.60
2019-03-24T15:40:49.543Z,82.30
2019-03-24T15:43:17.829Z,81.00
2019-03-24T15:45:45.809Z,75.00
2019-03-24T15:48:16.461Z,75.40
2019-03-24T15:50:44.462Z,69.37
2019-03-24T15:53:12.461Z,72.63
2019-03-24T15:55:40.589Z,72.70
2019-03-24T15:58:09.626Z,74.30
2019-03-24T16:00:48.295Z,73.83
2019-03-24T16:03:19.220Z,68.97
2019-03-24T16:05:49.334Z,70.70
2019-03-24T16:08:17.315Z,70.53
2019-03-24T16:10:45.361Z,64.60
2019-03-24T16:13:15.011Z,65.83
2019-03-24T16:15:43.031Z,76.70
2019-03-24T16:18:11.223Z,67.13
2019-03-24T16:20:40.155Z,71.83
2019-03-24T16:23:08.343Z,64.80
2019-03-24T16:25:36.346Z,69.57
2019-03-24T16:28:04.278Z,71.97
2019-03-24T16:30:32.363Z,75.87
2019-03-24T16:33:00.560Z,69.97
2019-03-24T16:35:30.477Z,75.50
2019-03-24T16:37:59.262Z,68.17
2019-03-24T16:40:28.213Z,73.60
2019-03-24T16:42:56.097Z,72.67
2019-03-24T16:45:23.946Z,67.97
2019-03-24T16:47:51.954Z,70.13
2019-03-24T16:50:19.991Z,67.90
2019-03-24T16:52:47.926Z,70.67
2019-03-24T16:55:15.948Z,65.00
2019-03-24T16:57:44.026Z,80.97
2019-03-24T17:00:12.247Z,75.20
2019-03-24T17:02:42.278Z,76.73
2019-03-24T17:05:10.552Z,74.63
2019-03-24T17:07:38.497Z,70.53
2019-03-24T17:10:08.508Z,73.37
2019-03-24T17:12:36.559Z,74.23
2019-03-24T17:15:05.323Z,70.27
2019-03-24T17:17:33.793Z,72.57
2019-03-24T17:20:02.965Z,67.93
2019-03-24T17:22:33.860Z,77.50
2019-03-24T17:25:01.900Z,70.23
2019-03-24T17:27:30.009Z,73.93
2019-03-24T17:29:58.010Z,72.87
2019-03-24T17:32:26.012Z,73.33
2019-03-24T17:34:54.097Z,75.97
2019-03-24T17:37:22.404Z,79.40
2019-03-24T17:39:50.764Z,80.53
2019-03-24T17:42:18.879Z,82.83
2019-03-24T17:44:46.788Z,74.60
2019-03-24T17:47:14.809Z,72.73
2019-03-24T17:49:42.989Z,80.87
2019-03-24T17:52:10.938Z,74.80
2019-03-24T17:54:38.984Z,71.57
2019-03-24T17:57:07.278Z,78.40
2019-03-24T17:59:36.459Z,72.70
2019-03-24T18:02:13.954Z,74.63
2019-03-24T18:04:34.614Z,75.53
2019-03-24T18:07:02.510Z,78.13
2019-03-24T18:09:31.271Z,81.10
2019-03-24T18:11:59.144Z,84.70
2019-03-24T18:14:27.091Z,79.40
2019-03-24T18:16:55.066Z,77.67
2019-03-24T18:19:23.034Z,78.97
2019-03-24T18:21:51.078Z,79.93
2019-03-24T18:24:19.101Z,73.80
2019-03-24T18:26:46.998Z,83.83
2019-03-24T18:29:15.104Z,80.33
2019-03-24T18:31:43.140Z,85.53
2019-03-24T18:34:11.210Z,86.87
2019-03-24T18:36:39.211Z,85.93
2019-03-24T18:39:08.698Z,78.10
2019-03-24T18:41:36.792Z,81.13
2019-03-24T18:44:04.738Z,80.90
2019-03-24T18:46:32.780Z,84.20
2019-03-24T18:49:00.816Z,84.93
2019-03-24T18:51:28.675Z,78.40
2019-03-24T18:53:56.588Z,86.50
2019-03-24T18:56:24.783Z,83.53
2019-03-24T18:58:52.805Z,78.30
2019-03-24T19:01:20.765Z,78.17
2019-03-24T19:03:48.513Z,82.27
2019-03-24T19:06:17.152Z,78.97
2019-03-24T19:08:45.235Z,81.63
2019-03-24T19:11:13.498Z,77.87
2019-03-24T19:13:41.447Z,73.67
2019-03-24T19:16:09.483Z,78.83
2019-03-24T19:18:37.341Z,81.20
2019-03-24T19:21:05.371Z,81.23
2019-03-24T19:23:33.978Z,84.87
2019-03-24T19:26:01.935Z,79.93
2019-03-24T19:28:30.209Z,93.83
2019-03-24T19:30:58.271Z,79.20
2019-03-24T19:33:26.607Z,81.93
2019-03-24T19:35:54.625Z,79.63
2019-03-24T19:38:23.196Z,78.23
2019-03-24T19:40:50.990Z,74.40
2019-03-24T19:43:18.862Z,76.40
2019-03-24T19:45:46.772Z,80.27
2019-03-24T19:48:14.803Z,75.40
2019-03-24T19:50:42.869Z,80.10
2019-03-24T19:53:11.713Z,70.40
2019-03-24T19:55:40.255Z,77.17
2019-03-24T19:58:08.255Z,72.57
2019-03-24T20:00:38.766Z,71.20
2019-03-24T20:03:09.548Z,79.67
2019-03-24T20:05:38.081Z,72.70
2019-03-24T20:08:06.189Z,77.03
2019-03-24T20:10:34.584Z,68.97
2019-03-24T20:13:02.706Z,72.63
2019-03-24T20:15:30.791Z,71.57
2019-03-24T20:17:58.896Z,71.23
2019-03-24T20:20:28.277Z,73.13
2019-03-24T20:22:58.320Z,58.70
2019-03-24T20:25:26.302Z,69.30
2019-03-24T20:27:54.349Z,71.50
2019-03-24T20:30:22.243Z,65.30
2019-03-24T20:32:50.581Z,64.90
2019-03-24T20:35:19.540Z,65.50
2019-03-24T20:37:47.537Z,69.50
2019-03-24T20:40:16.272Z,69.07
2019-03-24T20:42:44.287Z,73.97
2019-03-24T20:45:13.536Z,87.83
2019-03-24T20:47:41.573Z,85.17
2019-03-24T20:50:12.966Z,88.03
2019-03-24T20:52:40.876Z,86.37
2019-03-24T20:55:11.156Z,96.50
2019-03-24T20:57:39.130Z,136.90
2019-03-24T21:00:08.020Z,99.73
2019-03-24T21:02:38.374Z,115.03
2019-03-24T21:05:07.102Z,114.00
2019-03-24T21:07:35.388Z,122.23
2019-03-24T21:10:04.244Z,114.97
2019-03-24T21:12:32.418Z,103.27
2019-03-24T21:15:00.364Z,85.00
2019-03-24T21:17:28.467Z,77.37
2019-03-24T21:19:56.366Z,86.43
2019-03-24T21:22:24.497Z,83.10
2019-03-24T21:24:52.366Z,73.90
2019-03-24T21:27:20.639Z,81.33
2019-03-24T21:29:48.847Z,74.67
2019-03-24T21:32:17.117Z,84.03
2019-03-24T21:34:45.145Z,86.40
2019-03-24T21:37:13.194Z,77.87
2019-03-24T21:39:41.411Z,77.23
2019-03-24T21:42:09.538Z,63.33
2019-03-24T21:44:37.571Z,64.70
2019-03-24T21:47:05.600Z,64.57
2019-03-24T21:49:33.636Z,63.53
2019-03-24T21:52:01.488Z,62.40
2019-03-24T21:54:29.491Z,64.37
2019-03-24T21:56:57.572Z,70.87
2019-03-24T21:59:25.478Z,67.13
2019-03-24T22:01:53.411Z,73.47
2019-03-24T22:04:22.741Z,66.10
2019-03-24T22:06:51.334Z,56.90
2019-03-24T22:09:19.474Z,58.77
2019-03-24T22:11:47.725Z,57.20
2019-03-24T22:14:15.728Z,57.53
2019-03-24T22:16:43.679Z,51.03
2019-03-24T22:19:12.148Z,73.20
2019-03-24T22:21:42.299Z,59.07
2019-03-24T22:24:10.032Z,52.87
2019-03-24T22:26:40.200Z,48.50
2019-03-24T22:29:09.409Z,52.10
2019-03-24T22:31:37.629Z,47.40
2019-03-24T22:34:05.639Z,45.10
2019-03-24T22:36:35.016Z,45.33
2019-03-24T22:39:04.488Z,59.63
2019-03-24T22:41:32.592Z,43.97
2019-03-24T22:44:00.597Z,39.60
2019-03-24T22:46:28.533Z,35.53
2019-03-24T22:48:56.506Z,42.30
2019-03-24T22:51:24.694Z,41.47
2019-03-24T22:54:02.782Z,39.93
2019-03-24T22:56:22.569Z,45.53
2019-03-24T22:58:50.705Z,42.83
2019-03-24T23:01:18.760Z,44.67
2019-03-24T23:03:46.888Z,44.23
2019-03-24T23:06:14.975Z,45.03
2019-03-24T23:08:42.855Z,40.77
2019-03-24T23:11:10.557Z,50.80
2019-03-24T23:13:38.323Z,55.53
2019-03-24T23:16:06.268Z,45.50
2019-03-24T23:18:34.258Z,45.30
2019-03-24T23:21:02.163Z,46.40
2019-03-24T23:23:29.895Z,47.00
2019-03-24T23:25:57.930Z,51.10
2019-03-24T23:28:25.955Z,50.47
2019-03-24T23:30:55.267Z,48.37
2019-03-24T23:33:23.592Z,49.67
2019-03-24T23:35:51.761Z,50.47
2019-03-24T23:38:19.707Z,45.43
2019-03-24T23:40:47.434Z,49.13
2019-03-24T23:43:15.306Z,46.37
2019-03-24T23:45:43.407Z,52.40
2019-03-24T23:48:11.293Z,39.70
2019-03-24T23:50:39.665Z,42.47
2019-03-24T23:53:07.633Z,42.33
2019-03-24T23:55:35.510Z,39.03
2019-03-24T23:58:03.556Z,42.67
